Latest Weather Observations for Cape Moreton

IDQ60801

Issued at 3:02 pm EST Friday 24 November 2017 (issued every 30 minutes, with the page automatically refreshed every 10 minutes)

About weather observations | Map of weather stations | Latest weather observations for QLD | Other Formats
Station Details ID: 040043 Name: CAPE MORETON LIGHTHOUSE Lat: -27.03 Lon: 153.47 Height: 99.9 m
Data from the previous 72 hours. | See also: Recent months at Cape Moreton
Date/Time
EST
Temp
°C
App
Temp
°C
Dew
Point
°C
Rel
Hum
%
Delta-T
°C
Wind Press
QNH
hPa
Press
MSL
hPa
Rain since
9am
mm
Dir  Spd
km/h
Gust
km/h
Spd
kts
Gust
kts
24/03:00pm 23.6 19.4 18.9 75 3.0 SE 39 44 21 24 1014.6 1014.2 0.0
24/02:30pm 24.1 20.5 19.4 75 3.0 SE 37 44 20 24 1014.8 1014.4 0.0
24/02:00pm 24.1 19.7 18.5 71 3.5 SE 39 44 21 24 1015.0 1014.6 0.0
24/01:30pm 24.5 21.1 18.9 71 3.6 SSE 35 43 19 23 1015.3 1014.9 0.0
24/01:00pm 24.9 21.5 19.1 70 3.7 SSE 35 41 19 22 1015.4 1015.0 0.0
24/12:30pm 24.9 21.8 18.8 69 3.9 SE 33 43 18 23 1015.7 1015.3 0.0
24/12:00pm 25.1 21.6 18.8 68 4.0 SSE 35 41 19 22 1015.9 1015.5 0.0
24/11:30am 25.2 22.1 18.9 68 4.0 SE 33 39 18 21 1016.2 1015.8 0.0
24/11:00am 25.1 22.2 18.8 68 4.0 SSE 32 39 17 21 1016.5 1016.1 0.0
24/10:30am 25.5 22.9 19.4 69 3.9 SSE 32 37 17 20 1016.7 1016.3 0.0
24/10:00am 25.2 22.8 19.1 69 3.9 SSE 30 37 16 20 1016.8 1016.4 0.0
24/09:30am 24.4 21.7 19.2 73 3.3 SSE 32 39 17 21 1016.7 1016.3 0.0
24/09:00am 24.8 22.2 19.6 73 3.4 SE 32 39 17 21 1016.4 1016.0 0.0
24/08:30am 25.2 23.1 18.9 68 4.0 SE 28 33 15 18 1016.6 1016.2 0.0
24/08:00am 24.2 22.0 18.8 72 3.4 SE 28 33 15 18 1016.7 1016.3 0.0
24/07:30am 24.4 22.5 18.6 70 3.7 SE 26 32 14 17 1016.6 1016.2 0.0
24/07:00am 24.0 22.5 18.6 72 3.4 SE 24 30 13 16 1016.6 1016.2 0.0
24/06:30am 24.1 22.7 18.7 72 3.4 SE 24 30 13 16 1016.3 1015.9 0.0
24/06:00am 23.7 22.6 18.6 73 3.2 SE 22 28 12 15 1016.0 1015.6 0.0
24/05:30am 22.7 21.5 18.3 76 2.8 SE 22 26 12 14 1015.9 1015.5 0.0
24/05:00am 21.7 20.4 18.1 80 2.2 SE 22 26 12 14 1015.6 1015.2 0.0
24/04:30am 21.5 21.2 19.1 86 1.5 SE 19 24 10 13 1015.3 1014.9 0.0
24/04:00am 21.2 21.1 18.8 86 1.5 ESE 17 26 9 14 1015.0 1014.6 0.0
24/03:30am 21.6 20.8 19.3 87 1.5 SE 22 26 12 14 1014.8 1014.4 0.0
24/03:00am 21.4 20.5 19.0 86 1.5 SE 22 28 12 15 1014.8 1014.4 0.0
24/02:30am 21.5 21.0 19.1 86 1.5 SE 20 24 11 13 1014.8 1014.4 0.0
24/02:00am 21.7 21.3 19.3 86 1.5 ESE 20 24 11 13 1015.0 1014.6 0.0
24/01:30am 21.6 20.3 18.2 81 2.1 ESE 22 26 12 14 1015.2 1014.8 0.0
24/01:00am 21.4 20.3 17.8 80 2.2 ESE 20 24 11 13 1015.4 1015.0 0.0
24/12:30am 21.5 20.9 18.9 85 1.6 ESE 20 28 11 15 1015.8 1015.4 0.0
24/12:00am 21.7 21.0 19.4 87 1.5 ESE 22 28 12 15 1016.0 1015.6 0.0
 
Date/Time
EST
Temp
°C
App
Temp
°C
Dew
Point
°C
Rel
Hum
%
Delta-T
°C
Wind Press
QNH
hPa
Press
MSL
hPa
Rain since
9am
mm
Dir  Spd
km/h
Gust
km/h
Spd
kts
Gust
kts
23/11:30pm 21.5 20.5 18.9 85 1.6 ESE 22 28 12 15 1016.3 1015.9 0.0
23/11:00pm 21.7 20.1 19.1 85 1.6 ESE 26 32 14 17 1016.3 1015.9 0.0
23/10:30pm 21.6 19.4 18.6 83 1.9 ESE 28 33 15 18 1016.4 1016.0 0.0
23/10:00pm 21.6 19.3 18.4 82 2.0 ESE 28 33 15 18 1016.6 1016.2 0.0
23/09:30pm 21.6 19.3 18.4 82 2.0 ESE 28 32 15 17 1016.6 1016.2 0.0
23/09:00pm 21.6 19.3 18.4 82 2.0 ESE 28 35 15 19 1016.7 1016.3 0.0
23/08:30pm 21.5 18.7 18.1 81 2.1 ESE 30 35 16 19 1016.5 1016.1 0.0
23/08:00pm 21.5 18.7 18.3 82 2.0 ESE 30 37 16 20 1016.2 1015.8 0.0
23/07:30pm 21.5 18.4 18.3 82 2.0 ESE 32 37 17 20 1015.9 1015.5 0.0
23/07:00pm 21.6 18.2 18.2 81 2.1 ESE 33 37 18 20 1015.5 1015.1 0.0
23/06:30pm 21.7 18.4 17.9 79 2.4 ESE 32 35 17 19 1015.5 1015.1 0.0
23/06:00pm 21.8 18.2 17.6 77 2.6 ESE 33 39 18 21 1015.3 1014.9 0.0
23/05:30pm 22.4 18.9 18.0 76 2.8 ESE 33 39 18 21 1015.1 1014.7 0.0
23/05:00pm 22.4 18.6 18.0 76 2.8 ESE 35 39 19 21 1014.9 1014.5 0.0
23/04:30pm 22.5 19.1 17.6 74 3.0 ESE 32 37 17 20 1014.7 1014.3 0.0
23/04:00pm 23.3 20.2 18.4 74 3.1 ESE 32 37 17 20 1014.8 1014.4 0.0
23/03:30pm 23.3 20.3 17.7 71 3.5 ESE 30 35 16 19 1014.8 1014.4 0.0
23/03:00pm 23.1 19.5 17.3 70 3.6 ESE 32 39 17 21 1014.6 1014.2 0.0
23/02:30pm 23.4 20.0 17.6 70 3.6 ESE 32 37 17 20 1014.9 1014.5 0.0
23/02:00pm 23.8 20.3 17.8 69 3.8 SE 33 39 18 21 1015.0 1014.6 0.0
23/01:30pm 24.0 20.7 18.0 69 3.8 SE 32 39 17 21 1015.2 1014.8 0.0
23/01:00pm 24.1 21.0 17.4 66 4.2 SE 30 37 16 20 1015.4 1015.0 0.0
23/12:30pm 25.0 22.7 18.4 66 4.2 SE 28 33 15 18 1015.6 1015.2 0.0
23/12:00pm 25.0 22.4 17.7 64 4.6 SE 28 33 15 18 1016.0 1015.6 0.0
23/11:30am 25.4 23.3 18.1 64 4.6 SE 26 30 14 16 1016.3 1015.9 0.0
23/11:00am 24.9 22.5 17.4 63 4.7 SE 26 32 14 17 1016.4 1016.0 0.0
23/10:30am 24.9 22.1 17.4 63 4.7 SE 28 33 15 18 1016.4 1016.0 0.0
23/10:00am 24.9 22.6 16.6 60 5.1 SE 24 30 13 16 1016.6 1016.2 0.0
23/09:30am 25.7 23.8 17.6 61 5.1 ESE 24 28 13 15 1016.7 1016.3 0.0
23/09:00am 25.2 23.5 17.1 60 5.0 ESE 22 28 12 15 1016.7 1016.3 0.2
23/08:30am 24.8 22.4 17.3 63 4.7 ESE 26 32 14 17 1016.5 1016.1 0.2
23/08:00am 24.4 21.4 16.9 63 4.6 ESE 28 32 15 17 1016.4 1016.0 0.2
23/07:30am 23.5 21.0 17.0 67 4.0 ESE 26 32 14 17 1016.1 1015.7 0.2
23/07:00am 22.5 18.8 17.0 71 3.4 ESE 32 37 17 20 1015.9 1015.5 0.2
23/06:30am 21.7 19.2 17.1 75 2.8 ESE 26 30 14 16 1015.7 1015.3 0.2
23/06:00am 21.9 21.4 18.7 82 2.0 SE 19 26 10 14 1015.5 1015.1 0.2
23/05:30am 20.6 17.1 16.4 77 2.5 ESE 30 44 16 24 1015.1 1014.7 0.2
23/05:00am 20.4 17.8 16.0 76 2.6 ESE 24 32 13 17 1014.9 1014.5 0.2
23/04:30am 20.4 17.6 16.4 78 2.4 ESE 26 32 14 17 1014.6 1014.2 0.2
23/04:00am 20.4 17.4 16.8 80 2.2 ESE 28 35 15 19 1014.3 1013.8 0.2
23/03:30am 20.4 17.3 16.6 79 2.3 ESE 28 32 15 17 1014.2 1013.7 0.2
23/03:00am 20.4 17.2 16.4 78 2.4 ESE 28 33 15 18 1014.1 1013.6 0.2
23/02:30am 20.5 17.3 16.3 77 2.5 ESE 28 32 15 17 1014.3 1013.8 0.2
23/02:00am 20.7 17.2 16.5 77 2.5 ESE 30 35 16 19 1014.3 1013.8 0.2
23/01:30am 20.8 18.1 16.6 77 2.6 ESE 26 33 14 18 1014.6 1014.2 0.2
23/01:00am 20.5 17.1 15.7 74 2.9 ESE 28 35 15 19 1014.7 1014.3 0.2
23/12:30am 20.8 17.0 15.8 73 3.0 ESE 30 35 16 19 1014.9 1014.5 0.2
23/12:00am 20.8 17.1 16.0 74 2.9 ESE 30 35 16 19 1015.2 1014.8 0.2
 
Date/Time
EST
Temp
°C
App
Temp
°C
Dew
Point
°C
Rel
Hum
%
Delta-T
°C
Wind Press
QNH
hPa
Press
MSL
hPa
Rain since
9am
mm
Dir  Spd
km/h
Gust
km/h
Spd
kts
Gust
kts
22/11:30pm 20.9 16.7 16.3 75 2.8 ESE 33 39 18 21 1015.4 1015.0 0.2
22/11:00pm 21.1 17.6 16.5 75 2.8 ESE 30 37 16 20 1015.8 1015.4 0.2
22/10:30pm 21.1 16.5 16.1 73 3.0 ESE 35 41 19 22 1015.9 1015.5 0.2
22/10:00pm 21.1 17.0 16.5 75 2.8 ESE 33 39 18 21 1016.0 1015.6 0.2
22/09:30pm 21.0 16.5 16.4 75 2.8 ESE 35 39 19 21 1016.1 1015.7 0.2
22/09:00pm 21.0 16.2 16.6 76 2.7 ESE 37 43 20 23 1016.1 1015.7 0.2
22/08:30pm 21.1 16.9 16.3 74 2.9 ESE 33 39 18 21 1016.0 1015.6 0.2
22/08:00pm 20.9 16.9 16.1 74 2.9 ESE 32 37 17 20 1016.2 1015.8 0.2
22/07:30pm 21.1 16.6 16.3 74 2.9 ESE 35 39 19 21 1016.0 1015.6 0.2
22/07:00pm 21.1 17.0 15.9 72 3.1 ESE 32 39 17 21 1016.2 1015.8 0.2
22/06:30pm 21.1 17.2 15.6 71 3.3 ESE 30 37 16 20 1015.8 1015.4 0.2
22/06:00pm 21.2 17.3 15.5 70 3.4 ESE 30 35 16 19 1015.6 1015.2 0.2
22/05:30pm 21.5 18.3 16.2 72 3.2 ESE 28 33 15 18 1015.6 1015.2 0.2
22/05:00pm 21.7 18.2 15.5 68 3.7 ESE 28 35 15 19 1015.2 1014.8 0.2
22/04:30pm 21.7 17.8 15.5 68 3.7 ESE 30 37 16 20 1015.1 1014.7 0.2
22/04:00pm 22.0 18.5 15.6 67 3.8 ESE 28 33 15 18 1015.3 1014.9 0.2
22/03:30pm 22.2 18.9 16.0 68 3.8 SE 28 33 15 18 1015.3 1014.9 0.2
22/03:00pm 22.0 17.7 15.4 66 3.9 ESE 32 37 17 20 1015.4 1015.0 0.2
22/02:30pm 21.4 17.1 15.3 68 3.6 ESE 32 39 17 21 1015.5 1015.1 0.2
22/02:00pm 21.4 17.1 15.3 68 3.6 ESE 32 37 17 20 1015.8 1015.4 0.2
22/01:30pm 21.3 15.9 14.0 63 4.3 ESE 35 41 19 22 1016.0 1015.6 0.2
22/01:00pm 21.3 16.8 15.4 69 3.5 ESE 33 39 18 21 1016.1 1015.7 0.2
22/12:30pm 21.3 16.2 15.8 71 3.3 ESE 37 43 20 23 1016.1 1015.7 0.2
22/12:00pm 21.3 16.8 16.3 73 3.0 ESE 35 43 19 23 1016.2 1015.8 0.2
22/11:30am 21.0 16.2 15.5 71 3.3 ESE 35 43 19 23 1016.4 1016.0 0.2
22/11:00am 21.5 17.2 16.9 75 2.8 ESE 35 43 19 23 1016.7 1016.3 0.2
22/10:30am 21.5 16.4 16.9 75 2.8 ESE 39 44 21 24 1016.6 1016.2 0.2
22/10:00am 21.1 16.2 17.3 79 2.3 ESE 39 46 21 25 1016.6 1016.2 0.2
22/09:30am 20.4 16.2 18.0 86 1.5 ESE 37 44 20 24 1016.7 1016.3 0.2
22/09:00am 19.9 15.8 18.2 90 1.1 ESE 37 44 20 24 1016.5 1016.1 2.4
22/08:30am 19.9 16.9 17.7 87 1.4 E 30 39 16 21 1017.0 1016.6 1.6
22/08:16am 19.9 16.1 17.3 85 1.6 E 33 44 18 24 1016.9 1016.5 1.6
22/08:00am 20.9 15.1 16.1 74 2.9 ESE 41 48 22 26 1016.8 1016.4 1.6
22/07:30am 20.7 14.7 15.5 72 3.1 SE 41 48 22 26 1016.6 1016.2 1.6
22/07:00am 20.2 15.3 15.4 74 2.8 SE 35 43 19 23 1016.7 1016.3 1.6
22/06:30am 19.2 17.1 18.0 93 0.7 ESE 26 32 14 17 1016.6 1016.2 1.6
22/06:00am 19.4 16.2 18.2 93 0.7 E 32 39 17 21 1016.4 1016.0 1.2
22/05:30am 18.8 14.9 17.8 94 0.6 E 35 44 19 24 1016.1 1015.7 1.2
22/05:00am 19.0 15.1 17.8 93 0.7 E 35 44 19 24 1015.8 1015.4 1.0
22/04:42am 18.5 12.0 15.6 83 1.7 ESE 44 57 24 31 1015.6 1015.2 1.0
22/04:30am 19.8 13.2 16.3 80 2.1 ESE 46 65 25 35 1015.0 1014.6 0.8
22/04:04am 18.3 12.9 16.1 87 1.3 SE 39 57 21 31 1015.3 1014.9 0.8
22/04:00am 18.0 11.2 15.8 87 1.3 SE 46 63 25 34 1015.1 1014.7 0.8
22/03:30am 20.2 14.5 16.2 78 2.4 ESE 41 54 22 29 1015.2 1014.8 0.0
22/03:00am 20.5 14.2 15.7 74 2.9 ESE 43 52 23 28 1015.0 1014.6 0.0
22/02:30am 20.9 15.3 15.4 71 3.3 ESE 39 46 21 25 1015.1 1014.7 0.0
22/02:00am 20.9 14.7 15.9 73 3.0 ESE 43 48 23 26 1015.3 1014.9 0.0
22/01:30am 20.7 14.2 15.5 72 3.1 SE 44 52 24 28 1015.4 1015.0 0.0
22/01:00am 20.6 14.2 15.4 72 3.1 ESE 43 52 23 28 1015.7 1015.3 0.0
22/12:30am 20.7 15.3 15.9 74 2.9 ESE 39 48 21 26 1016.2 1015.8 0.0
22/12:00am 20.7 14.7 15.5 72 3.1 ESE 41 52 22 28 1016.6 1016.2 0.0
 
Date/Time
EST
Temp
°C
App
Temp
°C
Dew
Point
°C
Rel
Hum
%
Delta-T
°C
Wind Press
QNH
hPa
Press
MSL
hPa
Rain since
9am
mm
Dir  Spd
km/h
Gust
km/h
Spd
kts
Gust
kts
21/11:30pm 20.8 14.4 15.4 71 3.2 ESE 43 52 23 28 1016.9 1016.5 0.0
21/11:00pm 20.8 14.1 15.1 70 3.4 ESE 44 54 24 29 1017.0 1016.6 0.0
21/10:30pm 20.9 14.1 14.8 68 3.6 ESE 44 54 24 29 1017.2 1016.8 0.0
21/10:00pm 20.8 14.1 15.1 70 3.4 ESE 44 54 24 29 1017.3 1016.9 0.0
21/09:30pm 20.9 13.7 14.8 68 3.6 ESE 46 57 25 31 1017.6 1017.2 0.0
21/09:00pm 20.9 13.8 15.0 69 3.5 ESE 46 56 25 30 1017.7 1017.3 0.0
21/08:30pm 21.1 14.1 15.4 70 3.4 ESE 46 56 25 30 1017.7 1017.3 0.0
21/08:00pm 21.3 13.6 15.6 70 3.4 ESE 50 61 27 33 1017.5 1017.1 0.0
21/07:30pm 21.1 13.4 15.4 70 3.4 ESE 50 61 27 33 1017.3 1016.9 0.0
21/07:00pm 21.0 12.9 15.3 70 3.4 ESE 52 65 28 35 1017.4 1017.0 0.0
21/06:30pm 21.0 13.0 15.8 72 3.1 ESE 52 61 28 33 1017.4 1017.0 0.0
21/06:00pm 20.5 13.1 16.3 77 2.5 SE 50 63 27 34 1017.0 1016.6 0.0
21/05:38pm 20.8 13.5 16.6 77 2.6 ESE 50 69 27 37 1016.5 1016.1 0.0
21/05:30pm 21.4 13.6 16.1 72 3.2 ESE 52 61 28 33 1016.6 1016.2 0.0
21/05:15pm 21.1 15.6 16.7 76 2.7 SE 41 54 22 29 1016.8 1016.4 0.0
21/05:05pm 19.8 12.2 15.7 77 2.4 SE 50 69 27 37 1016.7 1016.3 0.0
21/05:00pm 19.9 11.8 15.3 75 2.7 SE 52 69 28 37 1016.4 1016.0 0.0
21/04:54pm 21.3 15.5 16.9 76 2.7 SE 43 61 23 33 1016.4 1016.0 0.0
21/04:30pm 21.5 15.7 16.9 75 2.8 SE 43 50 23 27 1016.7 1016.3 0.0
21/04:00pm 22.2 15.8 16.0 68 3.7 ESE 44 54 24 29 1016.6 1016.2 0.0
21/03:30pm 22.4 16.0 15.3 64 4.3 ESE 43 50 23 27 1016.8 1016.4 0.0

Other Formats:

Comma delimited format used in spreadsheet applications
http://www.bom.gov.au/fwo/IDQ60801/IDQ60801.94594.axf

JavaScript Object Notation format (JSON) in row-major order
http://www.bom.gov.au/fwo/IDQ60801/IDQ60801.94594.json